createdAt,value
2023-05-24T00:02:16.389Z,40.85
2023-05-24T00:04:45.279Z,41.20
2023-05-24T00:07:12.662Z,40.47
2023-05-24T00:09:39.472Z,40.53
2023-05-24T00:12:06.620Z,40.96
2023-05-24T00:14:33.662Z,41.14
2023-05-24T00:17:00.882Z,40.45
2023-05-24T00:19:27.765Z,40.85
2023-05-24T00:21:55.554Z,41.03
2023-05-24T00:24:22.306Z,40.51
2023-05-24T00:26:49.599Z,41.04
2023-05-24T00:29:16.413Z,40.75
2023-05-24T00:31:43.546Z,40.92
2023-05-24T00:34:10.465Z,40.84
2023-05-24T00:36:38.309Z,40.72
2023-05-24T00:39:05.261Z,40.82
2023-05-24T00:41:32.459Z,41.23
2023-05-24T00:43:59.304Z,41.06
2023-05-24T00:46:29.072Z,41.19
2023-05-24T00:48:56.085Z,40.88
2023-05-24T00:51:23.201Z,41.35
2023-05-24T00:53:50.016Z,41.18
2023-05-24T00:56:17.357Z,40.80
2023-05-24T00:58:44.514Z,41.31
2023-05-24T01:01:11.730Z,41.56
2023-05-24T01:03:39.641Z,41.21
2023-05-24T01:06:07.983Z,41.58
2023-05-24T01:08:38.763Z,41.34
2023-05-24T01:11:14.752Z,41.18
2023-05-24T01:13:59.607Z,41.77
2023-05-24T01:17:11.781Z,41.50
2023-05-24T01:19:57.620Z,41.69
2023-05-24T01:22:28.670Z,41.83
2023-05-24T01:25:06.414Z,41.93
2023-05-24T01:27:34.148Z,41.70
2023-05-24T01:30:01.218Z,41.05
2023-05-24T01:32:28.629Z,41.56
2023-05-24T01:34:55.554Z,41.54
2023-05-24T01:37:22.789Z,41.69
2023-05-24T01:39:49.529Z,41.98
2023-05-24T01:42:27.943Z,42.15
2023-05-24T01:45:16.957Z,42.09
2023-05-24T01:48:08.865Z,42.27
2023-05-24T01:50:37.518Z,41.78
2023-05-24T01:53:07.228Z,42.16
2023-05-24T01:55:34.340Z,42.18
2023-05-24T01:58:03.100Z,41.91
2023-05-24T02:00:29.956Z,41.83
2023-05-24T02:02:57.859Z,42.32
2023-05-24T02:05:24.952Z,41.66
2023-05-24T02:07:51.975Z,42.05
2023-05-24T02:10:18.805Z,42.32
2023-05-24T02:12:45.902Z,42.47
2023-05-24T02:15:14.752Z,42.09
2023-05-24T02:17:42.959Z,41.76
2023-05-24T02:20:10.951Z,42.29
2023-05-24T02:22:38.264Z,41.87
2023-05-24T02:25:05.502Z,42.43
2023-05-24T02:27:32.605Z,42.32
2023-05-24T02:29:59.419Z,42.22
2023-05-24T02:32:26.471Z,41.95
2023-05-24T02:34:53.283Z,42.78
2023-05-24T02:37:20.730Z,42.44
2023-05-24T02:39:47.607Z,43.15
2023-05-24T02:42:14.658Z,43.31
2023-05-24T02:44:42.844Z,43.47
2023-05-24T02:47:09.958Z,42.92
2023-05-24T02:49:36.755Z,42.97
2023-05-24T02:52:04.000Z,43.81
2023-05-24T02:54:30.812Z,44.14
2023-05-24T02:56:58.120Z,43.44
2023-05-24T02:59:24.980Z,43.02
2023-05-24T03:01:52.037Z,42.84
2023-05-24T03:04:18.794Z,43.63
2023-05-24T03:06:45.862Z,43.68
2023-05-24T03:09:13.068Z,44.52
2023-05-24T03:11:40.103Z,43.84
2023-05-24T03:14:06.860Z,43.93
2023-05-24T03:16:33.916Z,44.51
2023-05-24T03:19:00.771Z,44.40
2023-05-24T03:21:27.789Z,43.69
2023-05-24T03:23:54.547Z,43.94
2023-05-24T03:26:21.971Z,44.55
2023-05-24T03:28:50.603Z,44.14
2023-05-24T03:31:20.796Z,44.10
2023-05-24T03:33:47.864Z,44.00
2023-05-24T03:36:14.910Z,44.44
2023-05-24T03:38:41.654Z,44.92
2023-05-24T03:41:08.730Z,44.18
2023-05-24T03:43:35.562Z,44.48
2023-05-24T03:48:29.445Z,45.03
2023-05-24T03:50:56.488Z,45.11
2023-05-24T03:53:23.566Z,45.37
2023-05-24T03:55:51.050Z,45.50
2023-05-24T03:58:17.843Z,44.88
2023-05-24T04:00:45.105Z,45.14
2023-05-24T04:03:12.443Z,44.78
2023-05-24T04:05:39.777Z,44.78
2023-05-24T04:08:06.611Z,44.26
2023-05-24T04:10:33.704Z,45.05
2023-05-24T04:13:00.813Z,45.06
2023-05-24T04:15:27.963Z,45.14
2023-05-24T04:17:55.756Z,45.25
2023-05-24T04:20:27.604Z,44.38
2023-05-24T04:22:54.635Z,44.96
2023-05-24T04:25:22.051Z,44.61
2023-05-24T04:27:48.890Z,44.22
2023-05-24T04:30:16.702Z,44.40
2023-05-24T04:32:44.721Z,43.90
2023-05-24T04:35:12.017Z,44.43
2023-05-24T04:37:40.408Z,44.74
2023-05-24T04:40:08.343Z,44.39
2023-05-24T04:42:35.515Z,44.59
2023-05-24T04:45:02.952Z,44.25
2023-05-24T04:47:30.030Z,44.60
2023-05-24T04:49:57.118Z,44.63
2023-05-24T04:52:23.873Z,44.11
2023-05-24T04:54:51.264Z,44.07
2023-05-24T04:57:18.073Z,44.13
2023-05-24T04:59:45.161Z,44.31
2023-05-24T05:02:12.111Z,44.54
2023-05-24T05:04:39.405Z,44.99
2023-05-24T05:07:06.161Z,44.22
2023-05-24T05:09:33.197Z,43.91
2023-05-24T05:12:00.025Z,44.12
2023-05-24T05:14:27.113Z,44.45
2023-05-24T05:16:53.843Z,44.59
2023-05-24T05:19:21.612Z,44.70
2023-05-24T05:21:48.376Z,44.22
2023-05-24T05:24:16.441Z,43.84
2023-05-24T05:26:43.204Z,44.30
2023-05-24T05:29:10.248Z,44.26
2023-05-24T05:31:37.074Z,44.35
2023-05-24T05:34:04.159Z,44.11
2023-05-24T05:36:31.215Z,43.69
2023-05-24T05:38:58.307Z,43.63
2023-05-24T05:41:25.099Z,43.82
2023-05-24T05:43:52.106Z,43.90
2023-05-24T05:46:20.941Z,43.64
2023-05-24T05:48:48.150Z,43.57
2023-05-24T05:51:14.848Z,43.55
2023-05-24T05:53:41.913Z,43.46
2023-05-24T05:56:08.678Z,43.88
2023-05-24T05:58:35.927Z,43.57
2023-05-24T06:01:02.668Z,43.46
2023-05-24T06:03:29.921Z,43.73
2023-05-24T06:05:56.898Z,44.04
2023-05-24T06:08:23.977Z,44.09
2023-05-24T06:10:52.961Z,43.82
2023-05-24T06:13:20.246Z,44.12
2023-05-24T06:15:47.016Z,44.22
2023-05-24T06:18:15.475Z,44.81
2023-05-24T06:20:42.520Z,44.12
2023-05-24T06:23:09.779Z,44.40
2023-05-24T06:25:38.719Z,43.80
2023-05-24T06:28:05.975Z,44.28
2023-05-24T06:30:33.776Z,44.12
2023-05-24T06:33:01.655Z,44.53
2023-05-24T06:35:28.500Z,44.25
2023-05-24T06:37:57.559Z,43.80
2023-05-24T06:40:24.510Z,44.45
2023-05-24T06:42:51.564Z,44.45
2023-05-24T06:45:18.350Z,44.30
2023-05-24T06:47:45.605Z,44.31
2023-05-24T06:50:12.394Z,44.50
2023-05-24T06:52:39.628Z,44.36
2023-05-24T06:55:06.555Z,44.66
2023-05-24T06:57:33.599Z,44.98
2023-05-24T07:00:00.364Z,44.46
2023-05-24T07:02:28.721Z,44.46
2023-05-24T07:04:55.765Z,44.73
2023-05-24T07:07:23.029Z,44.79
2023-05-24T07:09:49.903Z,44.64
2023-05-24T07:12:17.049Z,44.78
2023-05-24T07:14:43.887Z,44.60
2023-05-24T07:17:11.140Z,44.21
2023-05-24T07:19:38.153Z,44.40
2023-05-24T07:22:05.399Z,44.37
2023-05-24T07:24:32.182Z,44.74
2023-05-24T07:26:59.337Z,44.46
2023-05-24T07:29:26.262Z,44.13
2023-05-24T07:31:56.196Z,44.49
2023-05-24T07:34:23.945Z,44.81
2023-05-24T07:36:51.061Z,44.27
2023-05-24T07:39:17.910Z,44.69
2023-05-24T07:41:45.229Z,45.04
2023-05-24T07:44:13.403Z,44.53
2023-05-24T07:46:40.606Z,44.66
2023-05-24T07:49:07.464Z,44.46
2023-05-24T07:51:34.507Z,44.01
2023-05-24T07:54:01.554Z,44.13
2023-05-24T07:56:29.234Z,44.66
2023-05-24T07:59:03.439Z,44.15
2023-05-24T08:01:32.080Z,44.02
2023-05-24T08:03:58.960Z,44.16
2023-05-24T08:06:26.584Z,44.64
2023-05-24T08:08:53.495Z,44.67
2023-05-24T08:11:20.585Z,44.80
2023-05-24T08:13:47.789Z,44.54
2023-05-24T08:16:14.948Z,44.47
2023-05-24T08:18:42.007Z,44.71
2023-05-24T08:21:09.268Z,44.97
2023-05-24T08:23:36.641Z,45.00
2023-05-24T08:26:03.870Z,44.73
2023-05-24T08:28:30.735Z,44.96
2023-05-24T08:30:59.359Z,44.56
2023-05-24T08:33:26.317Z,44.20
2023-05-24T08:35:53.418Z,44.32
2023-05-24T08:38:20.183Z,44.33
2023-05-24T08:40:47.871Z,44.90
2023-05-24T08:43:14.685Z,44.24
2023-05-24T08:45:42.027Z,44.78
2023-05-24T08:48:09.452Z,44.59
2023-05-24T08:50:36.597Z,44.56
2023-05-24T08:53:03.533Z,44.66
2023-05-24T08:55:33.719Z,44.28
2023-05-24T08:58:00.583Z,44.84
2023-05-24T09:00:27.735Z,44.47
2023-05-24T09:02:54.620Z,44.64
2023-05-24T09:05:22.151Z,44.36
2023-05-24T09:07:49.734Z,44.44
2023-05-24T09:10:17.167Z,44.57
2023-05-24T09:12:48.911Z,44.49
2023-05-24T09:15:15.959Z,43.96
2023-05-24T09:17:42.905Z,44.00
2023-05-24T09:20:11.256Z,44.23
2023-05-24T09:22:41.278Z,44.10
2023-05-24T09:25:09.983Z,44.18
2023-05-24T09:27:37.646Z,44.50
2023-05-24T09:30:09.185Z,43.91
2023-05-24T09:32:36.052Z,43.94
2023-05-24T09:35:03.212Z,43.89
2023-05-24T09:37:32.898Z,44.24
2023-05-24T09:40:00.493Z,44.52
2023-05-24T09:42:28.913Z,44.30
2023-05-24T09:45:06.682Z,43.82
2023-05-24T09:47:34.888Z,44.21
2023-05-24T09:50:02.929Z,43.90
2023-05-24T09:52:29.826Z,44.06
2023-05-24T09:54:56.884Z,44.29
2023-05-24T09:57:23.817Z,43.58
2023-05-24T09:59:51.832Z,43.63
2023-05-24T10:02:22.904Z,43.81
2023-05-24T10:04:57.373Z,44.03
2023-05-24T10:07:24.174Z,43.71
2023-05-24T10:09:51.757Z,43.61
2023-05-24T10:12:18.987Z,43.68
2023-05-24T10:14:46.111Z,43.49
2023-05-24T10:17:13.041Z,43.82
2023-05-24T10:19:41.592Z,43.62
2023-05-24T10:22:08.970Z,43.57
2023-05-24T10:24:41.170Z,43.42
2023-05-24T10:27:10.304Z,43.22
2023-05-24T10:29:45.335Z,43.50
2023-05-24T10:32:13.653Z,43.45
2023-05-24T10:34:41.003Z,43.62
2023-05-24T10:37:09.618Z,43.36
2023-05-24T10:39:37.317Z,43.21
2023-05-24T10:42:06.666Z,43.38
2023-05-24T10:44:35.937Z,43.56
2023-05-24T10:47:13.284Z,43.83
2023-05-24T10:49:53.416Z,43.40
2023-05-24T10:52:20.621Z,43.60
2023-05-24T10:55:10.500Z,43.42
2023-05-24T10:57:38.460Z,43.37
2023-05-24T11:00:41.017Z,43.69
2023-05-24T11:03:09.175Z,43.25
2023-05-24T11:05:49.886Z,43.02
2023-05-24T11:08:26.389Z,42.90
2023-05-24T11:11:22.044Z,42.79
2023-05-24T11:13:56.023Z,43.07
2023-05-24T11:16:37.845Z,43.37
2023-05-24T11:19:18.636Z,42.95
2023-05-24T11:21:46.313Z,42.78
2023-05-24T11:24:13.222Z,42.88
2023-05-24T11:26:41.192Z,42.77
2023-05-24T11:29:08.035Z,42.56
2023-05-24T11:31:42.447Z,43.24
2023-05-24T11:34:10.886Z,42.76
2023-05-24T11:36:37.988Z,43.07
2023-05-24T11:39:08.410Z,42.93
2023-05-24T11:41:38.847Z,42.78
2023-05-24T11:44:07.347Z,42.83
2023-05-24T11:46:34.537Z,43.01
2023-05-24T11:49:01.395Z,42.85
2023-05-24T11:51:33.064Z,42.55
2023-05-24T11:54:00.213Z,42.92
2023-05-24T11:56:30.936Z,42.73
2023-05-24T11:59:11.343Z,42.52
2023-05-24T12:01:38.460Z,42.51
2023-05-24T12:04:06.049Z,42.48
2023-05-24T12:06:43.340Z,42.42
2023-05-24T12:09:13.471Z,42.75
2023-05-24T12:11:41.490Z,42.82
2023-05-24T12:14:14.512Z,42.87
2023-05-24T12:16:45.556Z,42.51
2023-05-24T12:19:31.674Z,42.58
2023-05-24T12:22:00.320Z,42.78
2023-05-24T12:24:27.644Z,42.50
2023-05-24T12:27:02.168Z,42.79
2023-05-24T12:29:35.686Z,42.67
2023-05-24T12:32:03.092Z,42.68
2023-05-24T12:34:30.056Z,42.25
2023-05-24T12:36:57.260Z,42.21
2023-05-24T12:39:31.074Z,42.46
2023-05-24T12:41:58.803Z,42.14
2023-05-24T12:44:26.520Z,42.09
2023-05-24T12:46:54.328Z,42.62
2023-05-24T12:49:21.487Z,42.18
2023-05-24T12:51:49.600Z,42.00
2023-05-24T12:54:19.257Z,42.27
2023-05-24T12:56:46.343Z,42.38
2023-05-24T12:59:13.123Z,42.26
2023-05-24T13:01:40.350Z,42.04
2023-05-24T13:04:07.386Z,42.44
2023-05-24T13:06:34.440Z,41.99
2023-05-24T13:09:02.073Z,42.50
2023-05-24T13:11:31.149Z,42.30
2023-05-24T13:13:59.675Z,42.16
2023-05-24T13:16:26.927Z,42.76
2023-05-24T13:18:53.971Z,42.50
2023-05-24T13:21:21.637Z,42.40
2023-05-24T13:23:48.414Z,42.66
2023-05-24T13:26:15.498Z,42.57
2023-05-24T13:28:58.692Z,42.32
2023-05-24T13:31:30.604Z,43.06
2023-05-24T13:33:57.733Z,42.57
2023-05-24T13:36:24.807Z,42.30
2023-05-24T13:38:59.493Z,42.59
2023-05-24T13:41:34.428Z,42.70
2023-05-24T13:44:01.320Z,42.62
2023-05-24T13:46:29.128Z,42.14
2023-05-24T13:48:56.981Z,42.08
2023-05-24T13:51:24.275Z,42.34
2023-05-24T13:53:51.137Z,41.92
2023-05-24T13:56:18.697Z,41.83
2023-05-24T13:58:45.894Z,41.71
2023-05-24T14:01:13.031Z,42.14
2023-05-24T14:03:41.132Z,41.93
2023-05-24T14:06:09.200Z,42.15
2023-05-24T14:08:36.190Z,42.07
2023-05-24T14:11:03.324Z,42.27
2023-05-24T14:16:00.213Z,41.65
2023-05-24T14:18:27.069Z,41.68
2023-05-24T14:20:54.132Z,41.95
2023-05-24T14:23:21.000Z,41.50
2023-05-24T14:25:48.101Z,41.55
2023-05-24T14:28:14.860Z,41.71
2023-05-24T14:30:42.169Z,41.65
2023-05-24T14:33:11.510Z,41.96
2023-05-24T14:35:39.916Z,41.89
2023-05-24T14:38:07.834Z,41.46
2023-05-24T14:40:36.990Z,41.95
2023-05-24T14:43:04.859Z,41.59
2023-05-24T14:45:32.311Z,41.66
2023-05-24T14:48:00.827Z,41.88
2023-05-24T14:50:28.189Z,41.80
2023-05-24T14:52:55.742Z,41.59
2023-05-24T14:55:23.066Z,41.42
2023-05-24T14:57:50.056Z,41.51
2023-05-24T15:00:20.575Z,41.31
2023-05-24T15:02:49.287Z,42.80
2023-05-24T15:05:16.866Z,42.24
2023-05-24T15:07:43.618Z,42.16
2023-05-24T15:10:11.109Z,42.44
2023-05-24T15:12:38.147Z,42.30
2023-05-24T15:15:06.832Z,41.92
2023-05-24T15:17:33.767Z,42.26
2023-05-24T15:20:01.092Z,41.84
2023-05-24T15:22:27.884Z,41.64
2023-05-24T15:24:54.960Z,41.81
2023-05-24T15:27:22.024Z,41.65
2023-05-24T15:29:49.130Z,41.87
2023-05-24T15:32:15.890Z,41.82
2023-05-24T15:34:42.985Z,41.66
2023-05-24T15:37:09.855Z,41.80
2023-05-24T15:39:36.955Z,41.47
2023-05-24T15:42:03.865Z,41.33
2023-05-24T15:44:31.571Z,41.52
2023-05-24T15:46:58.400Z,41.19
2023-05-24T15:49:25.761Z,41.33
2023-05-24T15:54:22.496Z,41.33
2023-05-24T15:56:50.014Z,41.57
2023-05-24T15:59:17.812Z,41.50
2023-05-24T16:01:45.342Z,41.38
2023-05-24T16:04:12.879Z,41.95
2023-05-24T16:06:39.712Z,41.53
2023-05-24T16:09:08.138Z,41.76
2023-05-24T16:11:35.785Z,41.39
2023-05-24T16:14:03.680Z,41.74
2023-05-24T16:16:30.667Z,41.91
2023-05-24T16:18:57.847Z,41.52
2023-05-24T16:21:24.803Z,41.95
2023-05-24T16:23:51.923Z,41.53
2023-05-24T16:26:18.663Z,41.78
2023-05-24T16:28:45.768Z,41.50
2023-05-24T16:31:12.598Z,41.71
2023-05-24T16:33:39.956Z,42.11
2023-05-24T16:36:06.860Z,41.90
2023-05-24T16:38:34.012Z,42.18
2023-05-24T16:41:00.819Z,41.72
2023-05-24T16:43:27.904Z,41.89
2023-05-24T16:45:55.306Z,41.75
2023-05-24T16:48:28.284Z,42.10
2023-05-24T16:50:58.354Z,41.79
2023-05-24T16:53:26.858Z,41.81
2023-05-24T16:55:54.844Z,41.69
2023-05-24T16:58:25.385Z,41.92
2023-05-24T17:00:54.525Z,41.65
2023-05-24T17:03:27.743Z,42.04
2023-05-24T17:05:55.568Z,42.14
2023-05-24T17:08:22.786Z,41.97
2023-05-24T17:10:55.816Z,41.68
2023-05-24T17:13:23.716Z,41.78
2023-05-24T17:15:53.839Z,42.07
2023-05-24T17:18:27.747Z,42.03
2023-05-24T17:21:01.769Z,41.76
2023-05-24T17:23:33.770Z,41.97
2023-05-24T17:26:01.440Z,41.75
2023-05-24T17:28:28.572Z,42.01
2023-05-24T17:30:59.446Z,42.18
2023-05-24T17:33:27.966Z,41.75
2023-05-24T17:35:57.999Z,42.12
2023-05-24T17:38:25.329Z,41.56
2023-05-24T17:40:57.155Z,42.16
2023-05-24T17:43:25.172Z,42.11
2023-05-24T17:45:52.095Z,41.77
2023-05-24T17:48:19.194Z,42.04
2023-05-24T17:50:45.925Z,41.93
2023-05-24T17:53:29.922Z,42.19
2023-05-24T17:55:58.142Z,42.02
2023-05-24T17:58:25.294Z,42.08
2023-05-24T18:00:52.236Z,42.14
2023-05-24T18:03:19.346Z,41.90
2023-05-24T18:05:46.391Z,42.00
2023-05-24T18:08:13.473Z,41.77
2023-05-24T18:10:40.454Z,41.58
2023-05-24T18:13:11.225Z,41.68
2023-05-24T18:15:38.020Z,42.08
2023-05-24T18:18:05.293Z,41.94
2023-05-24T18:20:32.167Z,41.84
2023-05-24T18:22:59.363Z,41.97
2023-05-24T18:25:26.390Z,41.81
2023-05-24T18:27:53.436Z,41.94
2023-05-24T18:30:20.322Z,41.95
2023-05-24T18:33:03.611Z,42.07
2023-05-24T18:35:32.561Z,41.95
2023-05-24T18:37:59.653Z,41.92
2023-05-24T18:40:26.533Z,42.00
2023-05-24T18:42:53.692Z,41.90
2023-05-24T18:45:20.567Z,41.34
2023-05-24T18:47:47.824Z,41.93
2023-05-24T18:50:14.726Z,41.44
2023-05-24T18:52:41.874Z,41.98
2023-05-24T18:55:10.909Z,41.27
2023-05-24T18:57:38.210Z,41.35
2023-05-24T19:00:06.991Z,41.57
2023-05-24T19:02:39.065Z,41.21
2023-05-24T19:05:07.391Z,41.32
2023-05-24T19:07:35.241Z,41.53
2023-05-24T19:10:02.173Z,41.57
2023-05-24T19:12:30.157Z,41.63
2023-05-24T19:14:57.315Z,41.43
2023-05-24T19:17:25.111Z,41.38
2023-05-24T19:19:52.190Z,41.60
2023-05-24T19:22:19.435Z,41.20
2023-05-24T19:24:46.240Z,41.73
2023-05-24T19:27:14.708Z,41.27
2023-05-24T19:29:41.536Z,41.33
2023-05-24T19:32:08.955Z,41.22
2023-05-24T19:34:37.385Z,41.25
2023-05-24T19:37:04.673Z,41.56
2023-05-24T19:39:31.975Z,41.71
2023-05-24T19:41:59.019Z,41.51
2023-05-24T19:44:25.974Z,41.24
2023-05-24T19:46:53.190Z,41.58
2023-05-24T19:49:20.015Z,41.22
2023-05-24T19:51:47.158Z,41.28
2023-05-24T19:54:14.848Z,41.68
2023-05-24T19:56:42.018Z,41.57
2023-05-24T19:59:08.836Z,41.43
2023-05-24T20:01:36.123Z,41.62
2023-05-24T20:04:03.122Z,41.21
2023-05-24T20:06:31.522Z,41.57
2023-05-24T20:08:59.792Z,41.18
2023-05-24T20:11:28.125Z,41.70
2023-05-24T20:13:56.189Z,41.70
2023-05-24T20:16:23.551Z,41.49
2023-05-24T20:18:50.432Z,41.56
2023-05-24T20:21:17.795Z,41.21
2023-05-24T20:23:44.559Z,41.49
2023-05-24T20:26:11.762Z,41.53
2023-05-24T20:28:38.543Z,41.38
2023-05-24T20:31:06.388Z,41.75
2023-05-24T20:33:37.816Z,41.31
2023-05-24T20:36:05.461Z,41.76
2023-05-24T20:38:32.309Z,41.73
2023-05-24T20:40:59.984Z,41.54
2023-05-24T20:43:26.819Z,41.50
2023-05-24T20:45:54.185Z,41.29
2023-05-24T20:48:21.186Z,41.43
2023-05-24T20:50:48.398Z,41.38
2023-05-24T20:53:15.231Z,41.64
2023-05-24T20:55:42.521Z,41.72
2023-05-24T20:58:09.483Z,41.81
2023-05-24T21:00:38.862Z,41.46
2023-05-24T21:03:06.764Z,41.83
2023-05-24T21:05:36.382Z,41.48
2023-05-24T21:08:03.774Z,41.42
2023-05-24T21:10:32.288Z,41.52
2023-05-24T21:12:59.054Z,41.58
2023-05-24T21:15:26.161Z,41.54
2023-05-24T21:17:52.971Z,41.45
2023-05-24T21:20:20.219Z,41.93
2023-05-24T21:22:47.330Z,41.66
2023-05-24T21:25:14.538Z,42.17
2023-05-24T21:27:41.282Z,41.81
2023-05-24T21:30:08.980Z,41.76
2023-05-24T21:32:35.813Z,41.80
2023-05-24T21:35:02.887Z,41.63
2023-05-24T21:37:29.722Z,42.11
2023-05-24T21:39:56.948Z,42.13
2023-05-24T21:42:23.702Z,42.14
2023-05-24T21:44:50.765Z,41.69
2023-05-24T21:47:17.597Z,42.16
2023-05-24T21:49:44.809Z,42.23
2023-05-24T21:52:11.701Z,42.15
2023-05-24T21:54:38.811Z,41.88
2023-05-24T21:57:07.350Z,41.87
2023-05-24T21:59:34.497Z,42.00
2023-05-24T22:02:01.407Z,42.23
2023-05-24T22:04:28.514Z,41.99
2023-05-24T22:06:55.443Z,42.28
2023-05-24T22:09:22.506Z,42.12
2023-05-24T22:11:49.272Z,41.97
2023-05-24T22:14:16.486Z,42.22
2023-05-24T22:16:43.329Z,41.87
2023-05-24T22:19:16.666Z,41.95
2023-05-24T22:21:45.932Z,42.09
2023-05-24T22:24:13.698Z,41.77
2023-05-24T22:26:47.121Z,41.95
2023-05-24T22:29:14.511Z,41.99
2023-05-24T22:31:41.548Z,42.29
2023-05-24T22:34:11.243Z,41.97
2023-05-24T22:36:39.042Z,42.23
2023-05-24T22:39:06.393Z,41.66
2023-05-24T22:41:33.286Z,41.95
2023-05-24T22:44:00.403Z,41.84
2023-05-24T22:46:27.252Z,42.15
2023-05-24T22:48:56.775Z,42.12
2023-05-24T22:51:23.787Z,41.89
2023-05-24T22:53:52.752Z,42.19
2023-05-24T22:56:19.685Z,42.06
2023-05-24T22:58:46.784Z,42.15
2023-05-24T23:01:15.164Z,42.13
2023-05-24T23:03:42.380Z,41.99
2023-05-24T23:06:11.992Z,42.14
2023-05-24T23:08:39.358Z,42.27
2023-05-24T23:11:10.294Z,42.19
2023-05-24T23:13:37.712Z,42.12
2023-05-24T23:16:05.596Z,41.89
2023-05-24T23:18:33.035Z,42.03
2023-05-24T23:21:01.047Z,42.24
2023-05-24T23:23:28.093Z,42.12
2023-05-24T23:25:54.855Z,41.95
2023-05-24T23:28:21.926Z,42.14
2023-05-24T23:30:48.678Z,42.11
2023-05-24T23:33:15.971Z,42.03
2023-05-24T23:35:42.952Z,42.21
2023-05-24T23:38:10.172Z,42.26
2023-05-24T23:40:37.001Z,42.19
2023-05-24T23:43:04.344Z,42.16
2023-05-24T23:45:31.305Z,41.76
2023-05-24T23:47:58.817Z,42.19
2023-05-24T23:50:27.310Z,42.14
2023-05-24T23:52:54.691Z,42.09
2023-05-24T23:55:22.297Z,42.27
2023-05-24T23:57:49.837Z,42.16
